METAR Data
IDs: Format: Raw Decoded Include TAF

Data at: 1951 UTC 23 Oct 2021

LEPP 231930Z 00000KT CAVOK 12/07 Q1022